createdAt,value
2022-10-14T00:01:12.573Z,96484.31
2022-10-14T00:03:40.317Z,96487.91
2022-10-14T00:06:10.094Z,96486.88
2022-10-14T00:08:37.074Z,96482.66
2022-10-14T00:11:11.113Z,96482.94
2022-10-14T00:13:38.564Z,96481.34
2022-10-14T00:16:06.854Z,96480.28
2022-10-14T00:18:33.901Z,96483.91
2022-10-14T00:21:02.753Z,96480.00
2022-10-14T00:23:30.474Z,96482.59
2022-10-14T00:25:57.413Z,96480.44
2022-10-14T00:28:30.004Z,96475.44
2022-10-14T00:31:00.035Z,96481.50
2022-10-14T00:33:27.854Z,96468.84
2022-10-14T00:36:02.533Z,96471.50
2022-10-14T00:38:35.313Z,96470.91
2022-10-14T00:41:02.714Z,96473.53
2022-10-14T00:43:50.415Z,96477.75
2022-10-14T00:46:17.593Z,96467.97
2022-10-14T00:48:44.635Z,96467.41
2022-10-14T00:51:12.034Z,96471.91
2022-10-14T00:53:42.557Z,96465.56
2022-10-14T00:56:12.013Z,96459.50
2022-10-14T00:58:39.556Z,96464.47
2022-10-14T01:01:08.239Z,96459.94
2022-10-14T01:03:35.413Z,96456.00
2022-10-14T01:06:18.154Z,96448.59
2022-10-14T01:08:53.836Z,96445.16
2022-10-14T01:11:34.554Z,96448.03
2022-10-14T01:14:17.014Z,96443.81
2022-10-14T01:16:59.517Z,96434.63
2022-10-14T01:20:00.094Z,96437.72
2022-10-14T01:22:44.776Z,96427.72
2022-10-14T01:25:31.833Z,96425.81
2022-10-14T01:28:37.148Z,96425.81
2022-10-14T01:31:11.413Z,96428.13
2022-10-14T01:33:43.853Z,96437.00
2022-10-14T01:36:23.681Z,96434.06
2022-10-14T01:39:08.894Z,96426.19
2022-10-14T01:41:40.897Z,96418.22
2022-10-14T01:44:11.315Z,96426.13
2022-10-14T01:46:43.613Z,96416.91
2022-10-14T01:49:19.994Z,96410.81
2022-10-14T01:51:54.942Z,96412.66
2022-10-14T01:54:33.734Z,96416.56
2022-10-14T01:57:05.773Z,96410.19
2022-10-14T01:59:34.394Z,96410.94
2022-10-14T02:02:01.438Z,96417.47
2022-10-14T02:04:29.173Z,96410.91
2022-10-14T02:07:26.202Z,96413.72
2022-10-14T02:10:18.133Z,96412.63
2022-10-14T02:13:03.515Z,96405.91
2022-10-14T02:16:06.673Z,96400.31
2022-10-14T02:18:53.974Z,96406.13
2022-10-14T02:21:32.853Z,96393.66
2022-10-14T02:24:09.913Z,96392.31
2022-10-14T02:26:38.697Z,96390.72
2022-10-14T02:29:06.493Z,96387.00
2022-10-14T02:31:35.513Z,96392.31
2022-10-14T02:34:06.093Z,96392.81
2022-10-14T02:36:35.694Z,96393.72
2022-10-14T02:39:08.216Z,96386.47
2022-10-14T02:41:38.274Z,96386.47
2022-10-14T02:44:08.744Z,96384.59
2022-10-14T02:46:36.193Z,96381.97
2022-10-14T02:49:03.273Z,96384.38
2022-10-14T02:51:30.454Z,96386.47
2022-10-14T02:53:58.115Z,96383.09
2022-10-14T02:56:27.394Z,96387.56
2022-10-14T02:58:54.434Z,96394.16
2022-10-14T03:01:23.039Z,96396.22
2022-10-14T03:03:50.035Z,96393.84
2022-10-14T03:06:17.652Z,96391.44
2022-10-14T03:08:45.333Z,96391.88
2022-10-14T03:11:12.638Z,96392.44
2022-10-14T03:13:41.153Z,96389.34
2022-10-14T03:16:10.493Z,96393.84
2022-10-14T03:18:42.273Z,96405.94
2022-10-14T03:21:20.560Z,96397.03
2022-10-14T03:23:47.593Z,96397.31
2022-10-14T03:26:14.613Z,96395.66
2022-10-14T03:28:46.207Z,96394.59
2022-10-14T03:31:19.454Z,96391.81
2022-10-14T03:34:00.350Z,96388.16
2022-10-14T03:36:28.801Z,96400.25
2022-10-14T03:38:57.717Z,96401.84
2022-10-14T03:41:56.876Z,96398.19
2022-10-14T03:44:32.881Z,96393.97
2022-10-14T03:47:16.854Z,96401.84
2022-10-14T03:49:44.914Z,96394.69
2022-10-14T03:52:21.061Z,96394.44
2022-10-14T03:54:59.569Z,96393.91
2022-10-14T03:57:27.473Z,96394.97
2022-10-14T03:59:57.233Z,96390.75
2022-10-14T04:02:29.773Z,96388.34
2022-10-14T04:05:00.909Z,96381.50
2022-10-14T04:07:29.034Z,96388.59
2022-10-14T04:09:57.974Z,96387.22
2022-10-14T04:12:25.733Z,96392.47
2022-10-14T04:15:15.643Z,96394.06
2022-10-14T04:18:01.453Z,96395.63
2022-10-14T04:20:29.326Z,96385.13
2022-10-14T04:22:59.843Z,96385.34
2022-10-14T04:25:27.803Z,96375.81
2022-10-14T04:28:01.964Z,96365.81
2022-10-14T04:30:40.364Z,96372.59
2022-10-14T04:33:11.265Z,96374.09
2022-10-14T04:35:38.294Z,96369.31
2022-10-14T04:38:09.317Z,96370.28
2022-10-14T04:40:46.534Z,96364.72
2022-10-14T04:43:13.578Z,96369.16
2022-10-14T04:45:42.385Z,96369.97
2022-10-14T04:48:11.094Z,96366.00
2022-10-14T04:50:42.266Z,96368.38
2022-10-14T04:53:35.003Z,96368.63
2022-10-14T04:56:22.272Z,96364.16
2022-10-14T04:58:56.158Z,96362.59
2022-10-14T05:01:34.048Z,96363.38
2022-10-14T05:04:01.951Z,96363.38
2022-10-14T05:06:32.534Z,96366.78
2022-10-14T05:08:59.902Z,96368.38
2022-10-14T05:11:27.133Z,96359.22
2022-10-14T05:13:56.725Z,96362.09
2022-10-14T05:16:26.095Z,96364.72
2022-10-14T05:18:53.999Z,96357.63
2022-10-14T05:21:22.081Z,96360.50
2022-10-14T05:24:13.241Z,96358.91
2022-10-14T05:26:41.319Z,96360.75
2022-10-14T05:29:12.491Z,96360.75
2022-10-14T05:31:41.183Z,96354.16
2022-10-14T05:34:29.743Z,96365.44
2022-10-14T05:36:57.733Z,96363.38
2022-10-14T05:39:25.681Z,96366.31
2022-10-14T05:41:56.135Z,96370.69
2022-10-14T05:44:26.675Z,96371.66
2022-10-14T05:46:53.857Z,96370.88
2022-10-14T05:49:21.215Z,96369.28
2022-10-14T05:51:48.504Z,96373.00
2022-10-14T05:54:20.917Z,96373.88
2022-10-14T05:56:50.971Z,96373.38
2022-10-14T05:59:19.159Z,96373.94
2022-10-14T06:01:47.112Z,96374.50
2022-10-14T06:04:21.567Z,96374.09
2022-10-14T06:06:48.596Z,96376.81
2022-10-14T06:09:16.257Z,96380.75
2022-10-14T06:11:43.377Z,96381.88
2022-10-14T06:14:10.408Z,96381.13
2022-10-14T06:16:37.489Z,96383.03
2022-10-14T06:19:06.665Z,96378.09
2022-10-14T06:21:33.626Z,96381.56
2022-10-14T06:24:00.649Z,96382.97
2022-10-14T06:26:27.956Z,96379.91
2022-10-14T06:28:55.039Z,96381.63
2022-10-14T06:31:22.180Z,96383.50
2022-10-14T06:33:49.325Z,96384.09
2022-10-14T06:36:16.316Z,96385.50
2022-10-14T06:38:43.435Z,96384.03
2022-10-14T06:41:10.808Z,96395.69
2022-10-14T06:43:38.294Z,96397.59
2022-10-14T06:46:05.746Z,96403.44
2022-10-14T06:48:32.778Z,96400.72
2022-10-14T06:51:01.046Z,96402.38
2022-10-14T06:53:28.267Z,96403.25
2022-10-14T06:56:03.177Z,96407.06
2022-10-14T06:58:30.729Z,96403.41
2022-10-14T07:01:08.596Z,96409.53
2022-10-14T07:03:36.927Z,96410.63
2022-10-14T07:06:08.057Z,96409.63
2022-10-14T07:08:35.566Z,96409.97
2022-10-14T07:11:02.586Z,96406.91
2022-10-14T07:13:29.682Z,96412.19
2022-10-14T07:15:56.747Z,96413.09
2022-10-14T07:18:23.723Z,96412.06
2022-10-14T07:20:50.807Z,96413.44
2022-10-14T07:23:17.806Z,96416.13
2022-10-14T07:25:44.920Z,96414.59
2022-10-14T07:28:11.984Z,96413.28
2022-10-14T07:30:39.252Z,96420.13
2022-10-14T07:33:06.276Z,96406.44
2022-10-14T07:35:33.255Z,96417.25
2022-10-14T07:38:00.489Z,96422.25
2022-10-14T07:40:27.861Z,96429.13
2022-10-14T07:42:55.077Z,96431.50
2022-10-14T07:45:22.057Z,96437.56
2022-10-14T07:47:50.688Z,96437.06
2022-10-14T07:50:18.236Z,96437.88
2022-10-14T07:52:45.415Z,96435.78
2022-10-14T07:55:12.727Z,96435.03
2022-10-14T07:57:39.991Z,96447.94
2022-10-14T08:00:07.738Z,96446.88
2022-10-14T08:02:40.922Z,96443.19
2022-10-14T08:05:33.037Z,96442.34
2022-10-14T08:07:55.237Z,96455.03
2022-10-14T08:10:22.308Z,96450.78
2022-10-14T08:12:49.266Z,96460.00
2022-10-14T08:15:16.377Z,96463.44
2022-10-14T08:17:43.288Z,96461.34
2022-10-14T08:20:10.434Z,96465.06
2022-10-14T08:22:37.522Z,96472.97
2022-10-14T08:25:04.734Z,96471.44
2022-10-14T08:27:31.696Z,96481.19
2022-10-14T08:29:58.701Z,96475.94
2022-10-14T08:32:25.692Z,96470.66
2022-10-14T08:34:52.692Z,96466.16
2022-10-14T08:37:19.807Z,96461.91
2022-10-14T08:39:46.780Z,96461.41
2022-10-14T08:42:24.017Z,96465.34
2022-10-14T08:44:55.927Z,96465.59
2022-10-14T08:47:34.997Z,96466.63
2022-10-14T08:50:07.768Z,96461.88
2022-10-14T08:52:46.666Z,96466.63
2022-10-14T08:55:34.068Z,96467.41
2022-10-14T08:58:11.351Z,96473.97
2022-10-14T09:00:41.698Z,96474.69
2022-10-14T09:03:20.249Z,96473.31
2022-10-14T09:05:57.910Z,96475.59
2022-10-14T09:08:31.241Z,96473.75
2022-10-14T09:10:59.223Z,96471.00
2022-10-14T09:13:33.416Z,96468.56
2022-10-14T09:16:22.338Z,96470.81
2022-10-14T09:19:01.643Z,96473.88
2022-10-14T09:24:32.394Z,96464.81
2022-10-14T09:27:06.166Z,96461.22
2022-10-14T09:29:54.390Z,96469.78
2022-10-14T09:32:41.048Z,96464.97
2022-10-14T09:35:36.856Z,96465.00
2022-10-14T09:38:04.316Z,96457.56
2022-10-14T09:40:42.964Z,96456.38
2022-10-14T09:43:09.868Z,96463.94
2022-10-14T09:46:08.133Z,96453.09
2022-10-14T09:48:48.705Z,96458.38
2022-10-14T09:51:24.056Z,96456.56
2022-10-14T09:53:54.781Z,96449.53
2022-10-14T09:56:38.979Z,96448.78
2022-10-14T09:59:27.924Z,96459.53
2022-10-14T10:01:57.799Z,96456.22
2022-10-14T10:04:34.956Z,96458.59
2022-10-14T10:07:06.126Z,96453.47
2022-10-14T10:09:34.436Z,96455.34
2022-10-14T10:12:15.618Z,96458.78
2022-10-14T10:14:55.830Z,96451.41
2022-10-14T10:17:23.587Z,96444.13
2022-10-14T10:20:06.353Z,96448.19
2022-10-14T10:22:39.148Z,96450.28
2022-10-14T10:25:09.078Z,96449.47
2022-10-14T10:27:45.886Z,96448.22
2022-10-14T10:30:21.616Z,96435.47
2022-10-14T10:33:03.507Z,96438.84
2022-10-14T10:35:49.185Z,96429.56
2022-10-14T10:38:35.017Z,96434.00
2022-10-14T10:41:37.307Z,96436.13
2022-10-14T10:44:30.957Z,96425.28
2022-10-14T10:47:31.736Z,96425.59
2022-10-14T10:50:24.633Z,96412.56
2022-10-14T10:53:16.090Z,96410.16
2022-10-14T10:55:58.469Z,96409.13
2022-10-14T10:58:41.245Z,96403.56
2022-10-14T11:13:33.138Z,96389.31
2022-10-14T11:16:23.830Z,96384.00
2022-10-14T11:19:15.456Z,96383.78
2022-10-14T11:21:54.557Z,96383.41
2022-10-14T11:24:35.828Z,96380.47
2022-10-14T11:27:31.425Z,96373.56
2022-10-14T11:30:04.383Z,96369.38
2022-10-14T11:32:38.165Z,96371.44
2022-10-14T11:35:45.570Z,96370.44
2022-10-14T11:41:29.506Z,96362.47
2022-10-14T11:44:27.201Z,96367.44
2022-10-14T11:46:56.701Z,96359.91
2022-10-14T11:49:31.888Z,96365.56
2022-10-14T11:52:04.376Z,96359.03
2022-10-14T11:54:42.811Z,96355.06
2022-10-14T11:57:32.136Z,96355.28
2022-10-14T12:00:39.453Z,96357.47
2022-10-14T12:03:51.153Z,96357.00
2022-10-14T12:06:39.736Z,96352.44
2022-10-14T12:09:28.089Z,96345.84
2022-10-14T12:12:03.380Z,96346.00
2022-10-14T12:14:35.254Z,96342.44
2022-10-14T12:17:18.320Z,96345.78
2022-10-14T12:19:45.858Z,96347.72
2022-10-14T12:22:25.672Z,96345.75
2022-10-14T12:25:17.568Z,96344.53
2022-10-14T12:27:44.978Z,96343.75
2022-10-14T12:30:38.775Z,96339.50
2022-10-14T12:33:11.886Z,96331.66
2022-10-14T12:36:01.185Z,96327.34
2022-10-14T12:38:30.706Z,96320.16
2022-10-14T12:41:35.294Z,96320.28
2022-10-14T12:44:05.518Z,96317.56
2022-10-14T12:46:32.544Z,96319.34
2022-10-14T12:49:00.688Z,96310.63
2022-10-14T12:51:28.306Z,96312.75
2022-10-14T12:54:05.380Z,96311.25
2022-10-14T12:56:39.410Z,96321.13
2022-10-14T12:59:20.449Z,96308.81
2022-10-14T13:01:55.187Z,96306.88
2022-10-14T13:04:22.626Z,96300.69
2022-10-14T13:07:52.216Z,96307.25
2022-10-14T13:10:47.118Z,96307.00
2022-10-14T13:13:42.556Z,96303.09
2022-10-14T13:16:11.020Z,96309.50
2022-10-14T13:18:43.687Z,96304.16
2022-10-14T13:21:26.640Z,96311.47
2022-10-14T13:23:55.381Z,96297.47
2022-10-14T13:26:43.628Z,96302.50
2022-10-14T13:29:20.287Z,96296.50
2022-10-14T13:32:08.396Z,96305.09
2022-10-14T13:34:57.588Z,96298.59
2022-10-14T13:37:42.039Z,96299.00
2022-10-14T13:40:35.312Z,96299.72
2022-10-14T13:43:42.861Z,96304.94
2022-10-14T13:46:09.688Z,96305.25
2022-10-14T13:48:41.336Z,96297.88
2022-10-14T13:51:36.993Z,96297.13
2022-10-14T13:54:25.833Z,96295.56
2022-10-14T14:02:51.467Z,96291.97
2022-10-14T14:05:26.463Z,96282.66
2022-10-14T14:11:03.691Z,96282.13
2022-10-14T14:13:30.695Z,96283.97
2022-10-14T14:15:57.603Z,96284.97
2022-10-14T14:19:04.010Z,96281.06
2022-10-14T14:21:34.617Z,96285.13
2022-10-14T14:24:02.427Z,96278.13
2022-10-14T14:26:39.823Z,96275.75
2022-10-14T14:29:22.865Z,96267.47
2022-10-14T14:32:07.968Z,96272.16
2022-10-14T14:34:38.186Z,96273.94
2022-10-14T14:40:21.747Z,96275.47
2022-10-14T14:42:52.619Z,96269.72
2022-10-14T14:45:26.164Z,96275.50
2022-10-14T14:47:56.977Z,96267.94
2022-10-14T14:50:38.675Z,96277.66
2022-10-14T14:53:17.648Z,96269.22
2022-10-14T14:55:58.389Z,96281.81
2022-10-14T14:58:25.327Z,96278.59
2022-10-14T15:00:55.132Z,96282.53
2022-10-14T15:03:24.615Z,96281.44
2022-10-14T15:06:00.189Z,96278.00
2022-10-14T15:08:34.817Z,96276.63
2022-10-14T15:11:02.258Z,96281.59
2022-10-14T15:13:38.759Z,96281.88
2022-10-14T15:16:07.138Z,96274.00
2022-10-14T15:18:37.632Z,96278.72
2022-10-14T15:21:19.649Z,96288.19
2022-10-14T15:23:49.521Z,96286.97
2022-10-14T15:26:33.815Z,96283.00
2022-10-14T15:29:13.891Z,96288.09
2022-10-14T15:31:43.509Z,96292.47
2022-10-14T15:34:18.516Z,96290.63
2022-10-14T15:36:45.787Z,96304.44
2022-10-14T15:39:14.386Z,96301.72
2022-10-14T15:41:42.416Z,96298.72
2022-10-14T15:44:09.297Z,96301.56
2022-10-14T15:46:56.285Z,96292.31
2022-10-14T15:49:30.384Z,96297.22
2022-10-14T15:51:57.415Z,96296.84
2022-10-14T15:54:27.685Z,96302.13
2022-10-14T15:59:44.805Z,96307.09
2022-10-14T16:02:23.782Z,96305.28
2022-10-14T16:05:18.398Z,96300.03
2022-10-14T16:07:40.166Z,96311.44
2022-10-14T16:10:08.989Z,96301.19
2022-10-14T16:12:35.977Z,96294.38
2022-10-14T16:15:07.059Z,96303.41
2022-10-14T16:17:34.085Z,96299.50
2022-10-14T16:20:01.018Z,96305.63
2022-10-14T16:22:28.096Z,96311.75
2022-10-14T16:24:55.042Z,96311.00
2022-10-14T16:27:24.518Z,96307.63
2022-10-14T16:29:51.708Z,96314.28
2022-10-14T16:32:19.603Z,96316.19
2022-10-14T16:34:46.546Z,96327.09
2022-10-14T16:37:13.537Z,96322.31
2022-10-14T16:39:40.456Z,96325.00
2022-10-14T16:42:08.328Z,96325.31
2022-10-14T16:44:35.377Z,96322.41
2022-10-14T16:47:17.442Z,96322.19
2022-10-14T16:49:49.487Z,96325.94
2022-10-14T16:52:16.600Z,96331.00
2022-10-14T16:54:43.607Z,96330.75
2022-10-14T16:57:11.144Z,96323.34
2022-10-14T16:59:38.516Z,96322.81
2022-10-14T17:02:10.677Z,96321.22
2022-10-14T17:04:39.399Z,96320.69
2022-10-14T17:07:09.416Z,96314.41
2022-10-14T17:09:37.279Z,96315.97
2022-10-14T17:12:08.045Z,96317.59
2022-10-14T17:14:40.068Z,96318.44
2022-10-14T17:17:07.208Z,96320.84
2022-10-14T17:19:34.139Z,96324.84
2022-10-14T17:22:02.263Z,96326.97
2022-10-14T17:24:29.756Z,96323.53
2022-10-14T17:26:57.148Z,96324.63
2022-10-14T17:29:24.356Z,96327.28
2022-10-14T17:31:52.204Z,96332.06
2022-10-14T17:34:19.285Z,96329.69
2022-10-14T17:36:46.267Z,96330.47
2022-10-14T17:39:18.908Z,96327.56
2022-10-14T17:41:51.432Z,96328.09
2022-10-14T17:44:19.039Z,96337.34
2022-10-14T17:46:45.996Z,96336.81
2022-10-14T17:49:13.340Z,96342.63
2022-10-14T17:51:40.353Z,96340.78
2022-10-14T17:54:11.275Z,96340.25
2022-10-14T17:56:39.131Z,96346.31
2022-10-14T17:59:10.602Z,96343.69
2022-10-14T18:04:25.900Z,96346.84
2022-10-14T18:06:54.342Z,96352.63
2022-10-14T18:09:21.509Z,96356.06
2022-10-14T18:14:41.463Z,96359.50
2022-10-14T18:17:11.140Z,96355.53
2022-10-14T18:19:40.362Z,96359.78
2022-10-14T18:22:07.746Z,96349.47
2022-10-14T18:24:38.606Z,96361.34
2022-10-14T18:27:05.741Z,96360.81
2022-10-14T18:29:32.699Z,96362.94
2022-10-14T18:31:59.687Z,96360.03
2022-10-14T18:34:27.578Z,96357.66
2022-10-14T18:36:54.559Z,96357.38
2022-10-14T18:39:21.617Z,96358.44
2022-10-14T18:41:49.020Z,96348.16
2022-10-14T18:44:16.157Z,96354.19
2022-10-14T18:46:43.207Z,96359.47
2022-10-14T18:49:11.823Z,96363.94
2022-10-14T18:51:40.381Z,96374.22
2022-10-14T18:54:11.556Z,96366.34
2022-10-14T18:56:41.511Z,96370.03
2022-10-14T18:59:20.297Z,96366.59
2022-10-14T19:01:52.177Z,96375.00
2022-10-14T19:04:22.037Z,96363.91
2022-10-14T19:06:49.216Z,96372.09
2022-10-14T19:09:29.208Z,96370.00
2022-10-14T19:11:59.225Z,96370.50
2022-10-14T19:14:26.881Z,96365.75
2022-10-14T19:16:53.886Z,96361.00
2022-10-14T19:19:20.888Z,96372.38
2022-10-14T19:21:54.545Z,96371.56
2022-10-14T19:24:22.153Z,96375.50
2022-10-14T19:26:50.332Z,96372.63
2022-10-14T19:29:17.972Z,96371.84
2022-10-14T19:31:45.090Z,96372.63
2022-10-14T19:34:15.063Z,96376.31
2022-10-14T19:36:43.299Z,96369.69
2022-10-14T19:39:12.436Z,96365.22
2022-10-14T19:41:43.341Z,96363.09
2022-10-14T19:44:11.827Z,96358.38
2022-10-14T19:46:39.402Z,96357.03
2022-10-14T19:49:06.867Z,96356.78
2022-10-14T19:51:35.261Z,96360.44
2022-10-14T19:54:02.797Z,96362.03
2022-10-14T19:56:30.586Z,96358.09
2022-10-14T19:58:59.060Z,96362.84
2022-10-14T20:01:28.431Z,96358.34
2022-10-14T20:03:55.712Z,96366.25
2022-10-14T20:06:23.876Z,96371.78
2022-10-14T20:08:51.510Z,96373.09
2022-10-14T20:11:21.369Z,96374.41
2022-10-14T20:13:48.987Z,96370.97
2022-10-14T20:16:17.186Z,96376.25
2022-10-14T20:18:44.059Z,96381.28
2022-10-14T20:21:13.993Z,96378.09
2022-10-14T20:23:41.766Z,96375.72
2022-10-14T20:26:14.886Z,96365.19
2022-10-14T20:28:42.283Z,96373.88
2022-10-14T20:31:11.427Z,96367.56
2022-10-14T20:33:38.585Z,96373.63
2022-10-14T20:36:14.555Z,96377.84
2022-10-14T20:38:42.126Z,96375.47
2022-10-14T20:41:17.148Z,96374.66
2022-10-14T20:43:45.017Z,96376.78
2022-10-14T20:46:12.090Z,96368.31
2022-10-14T20:48:39.280Z,96379.41
2022-10-14T20:51:12.436Z,96364.13
2022-10-14T20:56:27.975Z,96355.44
2022-10-14T20:58:56.467Z,96350.69
2022-10-14T21:01:24.146Z,96347.28
2022-10-14T21:03:52.081Z,96340.94
2022-10-14T21:06:21.814Z,96336.69
2022-10-14T21:08:50.248Z,96334.59
2022-10-14T21:11:19.966Z,96333.00
2022-10-14T21:13:52.507Z,96333.81
2022-10-14T21:16:31.426Z,96330.91
2022-10-14T21:19:04.008Z,96321.16
2022-10-14T21:21:35.341Z,96316.66
2022-10-14T21:24:02.347Z,96318.78
2022-10-14T21:26:30.066Z,96318.72
2022-10-14T21:28:57.167Z,96322.41
2022-10-14T21:31:24.886Z,96319.25
2022-10-14T21:34:01.119Z,96317.91
2022-10-14T21:36:31.478Z,96316.06
2022-10-14T21:39:01.009Z,96311.84
2022-10-14T21:41:28.529Z,96318.47
2022-10-14T21:43:59.147Z,96321.59
2022-10-14T21:46:27.335Z,96324.53
2022-10-14T21:48:57.305Z,96316.31
2022-10-14T21:51:30.456Z,96316.06
2022-10-14T21:53:58.356Z,96316.31
2022-10-14T21:56:26.225Z,96310.00
2022-10-14T21:58:53.397Z,96310.50
2022-10-14T22:01:27.265Z,96307.88
2022-10-14T22:03:56.518Z,96311.06
2022-10-14T22:06:23.878Z,96299.22
2022-10-14T22:08:53.746Z,96298.94
2022-10-14T22:11:27.526Z,96295.50
2022-10-14T22:13:55.805Z,96296.53
2022-10-14T22:16:23.505Z,96284.16
2022-10-14T22:18:52.408Z,96294.97
2022-10-14T22:21:21.607Z,96292.88
2022-10-14T22:23:49.807Z,96294.72
2022-10-14T22:26:22.781Z,96287.59
2022-10-14T22:28:50.125Z,96292.34
2022-10-14T22:31:20.156Z,96295.50
2022-10-14T22:33:47.895Z,96289.19
2022-10-14T22:36:20.870Z,96286.06
2022-10-14T22:38:52.098Z,96291.56
2022-10-14T22:41:20.913Z,96289.72
2022-10-14T22:43:53.636Z,96287.63
2022-10-14T22:46:23.796Z,96287.09
2022-10-14T22:48:56.356Z,96283.66
2022-10-14T22:53:54.576Z,96278.66
2022-10-14T22:56:25.116Z,96272.34
2022-10-14T22:58:56.407Z,96270.75
2022-10-14T23:01:24.351Z,96258.38
2022-10-14T23:03:51.383Z,96263.09
2022-10-14T23:06:18.305Z,96258.88
2022-10-14T23:08:45.425Z,96253.84
2022-10-14T23:11:18.505Z,96255.97
2022-10-14T23:13:46.085Z,96258.06
2022-10-14T23:16:18.805Z,96259.38
2022-10-14T23:18:46.707Z,96251.47
2022-10-14T23:21:22.939Z,96252.25
2022-10-14T23:23:51.233Z,96258.28
2022-10-14T23:26:20.506Z,96262.25
2022-10-14T23:28:52.820Z,96258.25
2022-10-14T23:31:23.376Z,96259.56
2022-10-14T23:33:52.503Z,96264.84
2022-10-14T23:36:21.454Z,96256.69
2022-10-14T23:38:49.572Z,96254.31
2022-10-14T23:41:16.500Z,96261.16
2022-10-14T23:43:43.782Z,96256.69
2022-10-14T23:46:11.300Z,96259.06
2022-10-14T23:48:38.400Z,96255.09
2022-10-14T23:51:06.041Z,96249.31
2022-10-14T23:53:33.720Z,96254.31
2022-10-14T23:56:01.041Z,96257.19
2022-10-14T23:58:29.981Z,96254.78
